• Join FlightAware (Why Join?)
  • Login
  • US Flag 
06:58AM EST


 

Airport Tracker/Info


-or-


 

Live Flight TrackerFlight Track Log ✈ SWA558 ✈ 21-Apr-2013 ✈ KAUS - KMCO

Flight Track Log - Related Links

Times and Time Zones

All times are in EDT time to prevent confusion due to time zone crossing. See the SWA558 flight status page for this flight to view local times or setup timezone preferences in your user account.

Time Position Orientation Groundspeed Altitude Reporting Facility
EDT Latitude Longitude Course Direction KTS MPH feet Rate Location/Type
07:22PM 30.1725 -97.5767 103° East 265 305 5,900  Level Houston Center
07:23PM 30.2300 -97.5044 47° Northeast 292 336 10,300 3,300 Climbing Houston Center
07:24PM 30.2864 -97.4144 54° Northeast 340 391 12,800 3,060 Climbing Houston Center
07:25PM 30.3300 -97.2869 68° East 366 421 16,700 3,240 Climbing Houston Center
07:26PM 30.3581 -97.1636 75° East 401 461 19,600 2,700 Climbing Houston Center
07:27PM 30.3333 -96.8997 90° East  Level FlightAware Approximate
07:28PM 30.3241 -96.7537 103° East  Level FlightAware Approximate
07:28PM 30.3492 -97.0281 94° East 420 483 22,300  Level Houston Center
07:29PM 30.3406 -96.8842 94° East 438 504 24,800 2,160 Climbing Houston Center
07:30PM 30.3317 -96.7367 94° East 456 525 26,800 1,800 Climbing Houston Center
07:31PM 30.3217 -96.5819 94° East 476 548 28,600 1,860 Climbing Houston Center
07:32PM 30.3103 -96.3956 94° East 491 565 30,700 1,800 Climbing Houston Center
07:33PM 30.2997 -96.2311 94° East 506 582 32,400 1,740 Climbing Houston Center
07:34PM 30.2889 -96.0653 94° East 512 589 34,400 1,560 Climbing Houston Center
07:35PM 30.2653 -95.9197 101° East 502 578 35,700 1,080 Climbing Houston Center
07:36PM 30.2383 -95.7550 101° East 517 595 36,700 1,140 Climbing Houston Center
07:37PM 30.2061 -95.5561 101° East 523 602 38,100 1,020 Climbing Houston Center
07:38PM 30.1786 -95.3886 101° East 527 606 38,900 420 Climbing Houston Center
07:39PM 30.1500 -95.2172 101° East 536 617 39,000  Climbing Houston Center
07:40PM 30.1200 -95.0450 101° East 541 623 39,000  Level Houston Center
07:41PM 30.0906 -94.8733 101° East 543 625 39,000  Level Houston Center
07:42PM 30.0611 -94.7017 101° East 542 624 39,000  Level Houston Center
07:43PM 30.0303 -94.5281 102° East 546 628 39,000  Level Houston Center
07:44PM 29.9947 -94.3253 101° East 544 626 39,000  Level Houston Center
07:45PM 29.9647 -94.1550 101° East 546 628 39,000  Level Houston Center
07:46PM 29.9342 -93.9867 102° East 542 624 39,000  Level Houston Center
07:47PM 29.9033 -93.8189 102° East 541 623 39,000  Level Houston Center
07:48PM 29.8736 -93.6511 102° East 541 623 39,000  Level Houston Center
07:49PM 29.8350 -93.4489 102° East 544 626 39,000  Level Houston Center
07:50PM 29.8056 -93.2819 101° East 540 621 39,000  Level Houston Center
07:51PM 29.7739 -93.1153 102° East 538 619 39,000  Level Houston Center
07:52PM 29.7428 -92.9483 102° East 537 618 39,000  Level Houston Center
07:53PM 29.7117 -92.7819 102° East 537 618 39,000  Level Houston Center
07:54PM 29.6736 -92.5831 102° East 534 615 39,000  Level Houston Center
07:55PM 29.6419 -92.4183 102° East 531 611 39,000  Level Houston Center
07:56PM 29.6103 -92.2511 102° East 534 615 39,000  Level Houston Center
07:57PM 29.5772 -92.0861 103° East 533 613 39,000  Level Houston Center
07:59PM 29.5450 -91.9217 103° East 531 611 39,000  Level Houston Center
08:00PM 29.5131 -91.7567 103° East 531 611 39,000  Level Houston Center
08:01PM 29.4767 -91.5672 102° East 530 610 39,000  Level Houston Center
08:02PM 29.4439 -91.4022 103° East 530 610 39,000  Level Houston Center
08:03PM 29.4100 -91.2389 103° East 529 609 39,000  Level Houston Center
08:04PM 29.3767 -91.0750 103° East 530 610 39,000  Level Houston Center
08:05PM 29.3367 -90.8761 103° East 534 615 39,000  Level Houston Center
08:06PM 29.3025 -90.7128 103° East 531 611 39,000  Level Houston Center
08:07PM 29.2683 -90.5469 103° East 535 616 39,000  Level Houston Center
08:08PM 29.2336 -90.3833 104° East 534 615 39,000  Level Houston Center
08:09PM 29.1992 -90.2206 104° East 532 612 39,000  Level Houston Center
08:10PM 29.1656 -90.0556 103° East 534 615 39,000  Level Houston Center
08:11PM 29.1253 -89.8583 103° East 535 616 39,000  Level Houston Center
08:12PM 29.0908 -89.6928 103° East 537 618 39,000  Level Houston Center
08:13PM 29.0569 -89.5258 103° East 541 623 39,000  Level Houston Center
08:14PM 29.0222 -89.3608 103° East 539 620 39,000  Level Houston Center
08:15PM 28.9883 -89.1981 103° East 533 613 39,000  Level Houston Center
08:16PM 28.9542 -89.0339 103° East 532 612 39,000  Level Houston Center
08:17PM 28.9122 -88.8386 104° East 530 610 39,000  Level Houston Center
08:18PM 28.8778 -88.6775 104° East 525 604 39,000  Level Houston Center
08:19PM 28.8339 -88.5211 108° East 520 598 39,000  Level Houston Center
08:20PM 28.7894 -88.3642 108° East 520 598 39,000  Level Houston Center
08:21PM 28.7464 -88.2083 107° East 518 596 39,000  Level Houston Center
08:22PM 28.7022 -88.0478 107° East 518 596 39,000  Level Houston Center
08:23PM 28.6583 -87.8919 108° East 517 595 39,000  Level Houston Center
08:24PM 28.6164 -87.7006 104° East 520 598 39,000  Level Houston Center
08:25PM 28.5906 -87.5708 103° East 505 581 39,000  Level Jacksonville Center
08:26PM 28.5547 -87.4086 104° East 505 581 39,000  Level Jacksonville Center
08:27PM 28.5164 -87.2464 105° East 518 596 39,000  Level Jacksonville Center
08:28PM 28.4842 -87.0914 103° East 513 590 39,000  Level Jacksonville Center
08:29PM 28.4478 -86.9200 104° East 513 590 39,000  Level Jacksonville Center
08:30PM 28.4092 -86.7556 105° East 519 597 39,000  Level Jacksonville Center
08:31PM 28.3761 -86.6011 104° East 514 592 39,000  Level Jacksonville Center
08:32PM 28.3389 -86.4442 105° East 515 593 39,000  Level Jacksonville Center
08:33PM 28.3014 -86.2847 105° East 510 587 39,000  Level Jacksonville Center
08:34PM 28.2678 -86.1353 104° East 505 581 39,000  Level Jacksonville Center
08:35PM 28.2319 -85.9786 105° East 505 581 39,000  Level Jacksonville Center
08:36PM 28.1958 -85.8222 105° East 505 581 39,000  Level Jacksonville Center
08:37PM 28.1597 -85.6633 104° East 510 587 39,000  Level Jacksonville Center
08:40PM 28.0817 -85.3314 105° East 489 563 39,000  Level Miami Center
08:41PM 28.0469 -85.1786 104° East 484 557 39,000  Level Miami Center
08:42PM 28.0100 -85.0208 105° East 490 564 39,000  Level Miami Center
08:43PM 27.9747 -84.8728 105° East 496 571 39,000  Level Miami Center
08:44PM 27.9278 -84.7031 107° East 486 559 39,000  Level Miami Center
08:45PM 27.8922 -84.5503 105° East 492 566 39,000 -300 Level Miami Center
08:46PM 27.8525 -84.3975 106° East 497 572 38,500 -720 Descending Miami Center
08:47PM 27.8206 -84.2500 104° East 502 578 37,600 -1,080 Descending Miami Center
08:48PM 27.7825 -84.0975 106° East 497 572 36,400 -1,920 Descending Miami Center
08:49PM 27.7419 -83.9450 107° East 502 578 33,800 -2,400 Descending Miami Center
08:50PM 27.7119 -83.7933 103° East 502 578 31,700 -2,100 Descending Miami Center
08:51PM 27.6731 -83.6481 107° East 496 571 29,700 -1,920 Descending Miami Center
08:52PM 27.6358 -83.5075 107° East 479 551 27,900 -2,160 Descending Miami Center
08:53PM 27.6064 -83.3747 104° East 460 529 25,400 -2,520 Descending Miami Center
08:54PM 27.6064 -83.2367 90° East 430 495 22,900 -2,520 Descending Miami Center
08:55PM 27.6431 -83.1100 72° East 415 478 20,400 -1,980 Descending Miami Center
08:56PM 27.6817 -82.9903 70° East 420 483 19,000 -1,200 Descending Miami Center
08:57PM 27.7175 -82.8797 70° East 393 452 18,000 -960 Descending Miami Center
08:58PM 27.7489 -82.7781 71° East 371 427 17,100 -960 Descending Miami Center
08:59PM 27.7800 -82.6789 70° East 347 399 16,100 -1,020 Descending Miami Center
09:00PM 27.8114 -82.5772 71° East 335 386 15,100 -600 Descending Miami Center
09:01PM 27.8422 -82.4803 70° East 330 380 14,900 -120 Descending Miami Center
09:02PM 27.8708 -82.3853 71° East 323 372 14,900  Level Miami Center
09:03PM 27.9019 -82.2858 70° East 323 372 14,900 -180 Level Miami Center
09:04PM 27.9303 -82.1981 70° East 323 372 14,600 -720 Descending Miami Center
09:05PM 27.9833 -82.0333 70° East 323 372 13,100 -600 Descending Orlando TRACON
09:06PM 28.0167 -81.9500 66° East 316 364 13,100  Level Orlando TRACON
09:07PM 28.0667 -81.8500 60° Northeast 317 365 13,100 -780 Level Orlando TRACON
09:08PM 28.1000 -81.7667 66° East 314 361 11,600 -1,500 Descending Orlando TRACON
09:09PM 28.1167 -81.6833 77° East 296 341 10,100 -1,680 Descending Orlando TRACON
09:10PM 28.1167 -81.5833 90° East 291 335 8,300 -1,560 Descending Orlando TRACON
09:11PM 28.1000 -81.5167 106° East 281 323 7,200 -1,080 Descending Orlando TRACON
09:12PM 28.1167 -81.4500 74° East 233 268 6,300 -1,080 Descending Orlando TRACON
09:13PM 28.1500 -81.3833 60° Northeast 230 265 5,100 -1,260 Descending Orlando TRACON
09:14PM 28.2000 -81.3333 41° Northeast 222 255 3,800 -1,320 Descending Orlando TRACON
09:15PM 28.2500 -81.3000 30° Northeast 216 249 2,500 -1,140 Descending Orlando TRACON
09:16PM 28.3000 -81.3000 360° North 184 212 1,600 -720 Descending Orlando TRACON
09:17PM 28.3500 -81.3000 360° North 147 169 1,100 -600 Descending Orlando TRACON
09:18PM 28.4000 -81.3000 360° North 120 138 400 -660 Descending Orlando TRACON
09:20PM 28.4294 -81.3090 345° North  Level Estimated